sensor_id;sensor_type;location;lat;lon;timestamp;temperature;humidity
3300;DHT22;1662;49.310;8.134;2023-05-19T00:01:08;13.30;99.90
3300;DHT22;1662;49.310;8.134;2023-05-19T00:03:35;13.10;99.90
3300;DHT22;1662;49.310;8.134;2023-05-19T00:06:05;13.10;99.90
3300;DHT22;1662;49.310;8.134;2023-05-19T00:08:37;13.00;99.90
3300;DHT22;1662;49.310;8.134;2023-05-19T00:11:03;13.00;99.90
3300;DHT22;1662;49.310;8.134;2023-05-19T00:13:29;13.30;99.90
3300;DHT22;1662;49.310;8.134;2023-05-19T00:15:55;12.90;99.90
3300;DHT22;1662;49.310;8.134;2023-05-19T00:18:21;13.00;99.90
3300;DHT22;1662;49.310;8.134;2023-05-19T00:20:46;13.00;99.90
3300;DHT22;1662;49.310;8.134;2023-05-19T00:23:12;12.90;99.90
3300;DHT22;1662;49.310;8.134;2023-05-19T00:25:38;13.10;99.90
3300;DHT22;1662;49.310;8.134;2023-05-19T00:28:03;12.80;99.90
3300;DHT22;1662;49.310;8.134;2023-05-19T00:30:29;12.80;99.90
3300;DHT22;1662;49.310;8.134;2023-05-19T00:32:55;12.70;99.90
3300;DHT22;1662;49.310;8.134;2023-05-19T00:35:23;12.80;99.90
3300;DHT22;1662;49.310;8.134;2023-05-19T00:37:49;12.70;99.90
3300;DHT22;1662;49.310;8.134;2023-05-19T00:40:17;12.80;99.90
3300;DHT22;1662;49.310;8.134;2023-05-19T00:42:43;12.70;99.90
3300;DHT22;1662;49.310;8.134;2023-05-19T00:45:09;12.90;99.90
3300;DHT22;1662;49.310;8.134;2023-05-19T00:47:38;12.60;99.90
3300;DHT22;1662;49.310;8.134;2023-05-19T00:50:06;12.60;99.90
3300;DHT22;1662;49.310;8.134;2023-05-19T00:52:32;12.60;99.90
3300;DHT22;1662;49.310;8.134;2023-05-19T00:57:24;12.40;99.90
3300;DHT22;1662;49.310;8.134;2023-05-19T00:59:51;12.40;99.90
3300;DHT22;1662;49.310;8.134;2023-05-19T01:02:17;12.40;99.90
3300;DHT22;1662;49.310;8.134;2023-05-19T01:04:43;12.40;99.90
3300;DHT22;1662;49.310;8.134;2023-05-19T01:07:10;12.40;99.90
3300;DHT22;1662;49.310;8.134;2023-05-19T01:09:36;12.40;99.90
3300;DHT22;1662;49.310;8.134;2023-05-19T01:12:02;12.00;99.90
3300;DHT22;1662;49.310;8.134;2023-05-19T01:14:29;12.40;99.90
3300;DHT22;1662;49.310;8.134;2023-05-19T01:20:01;12.30;99.90
3300;DHT22;1662;49.310;8.134;2023-05-19T01:28:15;12.20;99.90
3300;DHT22;1662;49.310;8.134;2023-05-19T01:30:48;12.20;99.90
3300;DHT22;1662;49.310;8.134;2023-05-19T01:33:16;12.20;99.90
3300;DHT22;1662;49.310;8.134;2023-05-19T01:35:43;12.20;99.90
3300;DHT22;1662;49.310;8.134;2023-05-19T01:38:11;12.20;99.90
3300;DHT22;1662;49.310;8.134;2023-05-19T01:40:40;12.80;99.90
3300;DHT22;1662;49.310;8.134;2023-05-19T01:43:09;12.20;99.90
3300;DHT22;1662;49.310;8.134;2023-05-19T01:45:35;12.30;99.90
3300;DHT22;1662;49.310;8.134;2023-05-19T01:48:02;12.20;99.90
3300;DHT22;1662;49.310;8.134;2023-05-19T01:50:28;12.20;99.90
3300;DHT22;1662;49.310;8.134;2023-05-19T01:52:54;12.20;99.90
3300;DHT22;1662;49.310;8.134;2023-05-19T02:09:01;12.10;99.90
3300;DHT22;1662;49.310;8.134;2023-05-19T02:11:37;12.00;99.90
3300;DHT22;1662;49.310;8.134;2023-05-19T02:14:11;12.10;99.90
3300;DHT22;1662;49.310;8.134;2023-05-19T02:16:38;12.00;99.90
3300;DHT22;1662;49.310;8.134;2023-05-19T02:19:20;12.10;99.90
3300;DHT22;1662;49.310;8.134;2023-05-19T02:21:45;12.00;99.90
3300;DHT22;1662;49.310;8.134;2023-05-19T02:24:11;12.00;99.90
3300;DHT22;1662;49.310;8.134;2023-05-19T02:26:36;12.30;99.90
3300;DHT22;1662;49.310;8.134;2023-05-19T02:29:02;12.00;99.90
3300;DHT22;1662;49.310;8.134;2023-05-19T02:31:28;12.10;99.90
3300;DHT22;1662;49.310;8.134;2023-05-19T02:33:53;12.30;99.90
3300;DHT22;1662;49.310;8.134;2023-05-19T02:36:19;12.00;99.90
3300;DHT22;1662;49.310;8.134;2023-05-19T02:38:44;11.90;99.90
3300;DHT22;1662;49.310;8.134;2023-05-19T02:41:10;11.90;99.90
3300;DHT22;1662;49.310;8.134;2023-05-19T02:43:35;11.90;99.90
3300;DHT22;1662;49.310;8.134;2023-05-19T02:46:01;12.00;99.90
3300;DHT22;1662;49.310;8.134;2023-05-19T02:48:29;11.70;99.90
3300;DHT22;1662;49.310;8.134;2023-05-19T02:50:54;12.10;99.90
3300;DHT22;1662;49.310;8.134;2023-05-19T02:53:20;12.20;99.90
3300;DHT22;1662;49.310;8.134;2023-05-19T02:55:45;12.50;99.90
3300;DHT22;1662;49.310;8.134;2023-05-19T02:58:11;12.00;99.90
3300;DHT22;1662;49.310;8.134;2023-05-19T03:00:37;12.00;99.90
3300;DHT22;1662;49.310;8.134;2023-05-19T03:03:02;11.90;99.90
3300;DHT22;1662;49.310;8.134;2023-05-19T03:05:31;11.90;99.90
3300;DHT22;1662;49.310;8.134;2023-05-19T03:07:56;11.80;99.90
3300;DHT22;1662;49.310;8.134;2023-05-19T03:10:22;11.90;99.90
3300;DHT22;1662;49.310;8.134;2023-05-19T03:12:48;11.80;99.90
3300;DHT22;1662;49.310;8.134;2023-05-19T03:15:13;12.30;99.90
3300;DHT22;1662;49.310;8.134;2023-05-19T03:17:39;11.80;99.90
3300;DHT22;1662;49.310;8.134;2023-05-19T03:20:05;11.70;99.90
3300;DHT22;1662;49.310;8.134;2023-05-19T03:22:32;11.60;99.90
3300;DHT22;1662;49.310;8.134;2023-05-19T03:24:57;11.60;99.90
3300;DHT22;1662;49.310;8.134;2023-05-19T03:27:23;11.60;99.90
3300;DHT22;1662;49.310;8.134;2023-05-19T03:29:49;11.80;99.90
3300;DHT22;1662;49.310;8.134;2023-05-19T03:32:15;11.60;99.90
3300;DHT22;1662;49.310;8.134;2023-05-19T03:34:42;11.50;99.90
3300;DHT22;1662;49.310;8.134;2023-05-19T03:37:08;11.50;99.90
3300;DHT22;1662;49.310;8.134;2023-05-19T03:39:35;11.60;99.90
3300;DHT22;1662;49.310;8.134;2023-05-19T03:42:01;11.40;99.90
3300;DHT22;1662;49.310;8.134;2023-05-19T03:44:26;11.50;99.90
3300;DHT22;1662;49.310;8.134;2023-05-19T03:46:52;11.30;99.90
3300;DHT22;1662;49.310;8.134;2023-05-19T03:49:18;11.30;99.90
3300;DHT22;1662;49.310;8.134;2023-05-19T03:51:43;11.40;99.90
3300;DHT22;1662;49.310;8.134;2023-05-19T03:54:09;11.40;99.90
3300;DHT22;1662;49.310;8.134;2023-05-19T03:56:38;11.30;99.90
3300;DHT22;1662;49.310;8.134;2023-05-19T03:59:06;11.90;99.90
3300;DHT22;1662;49.310;8.134;2023-05-19T04:01:33;11.30;99.90
3300;DHT22;1662;49.310;8.134;2023-05-19T04:03:58;11.30;99.90
3300;DHT22;1662;49.310;8.134;2023-05-19T04:06:24;11.50;99.90
3300;DHT22;1662;49.310;8.134;2023-05-19T04:08:49;11.10;99.90
3300;DHT22;1662;49.310;8.134;2023-05-19T04:11:18;11.50;99.90
3300;DHT22;1662;49.310;8.134;2023-05-19T04:13:46;11.00;99.90
3300;DHT22;1662;49.310;8.134;2023-05-19T04:16:12;11.30;99.90
3300;DHT22;1662;49.310;8.134;2023-05-19T04:18:40;10.90;99.90
3300;DHT22;1662;49.310;8.134;2023-05-19T04:21:06;10.90;99.90
3300;DHT22;1662;49.310;8.134;2023-05-19T04:23:35;11.10;99.90
3300;DHT22;1662;49.310;8.134;2023-05-19T04:26:03;11.10;99.90
3300;DHT22;1662;49.310;8.134;2023-05-19T04:28:30;11.50;99.90
3300;DHT22;1662;49.310;8.134;2023-05-19T04:30:58;11.20;99.90
3300;DHT22;1662;49.310;8.134;2023-05-19T04:33:24;12.10;99.90
3300;DHT22;1662;49.310;8.134;2023-05-19T05:50:03;12.30;99.90
3300;DHT22;1662;49.310;8.134;2023-05-19T05:52:30;12.50;99.90
3300;DHT22;1662;49.310;8.134;2023-05-19T05:54:57;12.70;99.90
3300;DHT22;1662;49.310;8.134;2023-05-19T05:57:23;12.20;99.90
3300;DHT22;1662;49.310;8.134;2023-05-19T05:59:49;13.10;99.90
3300;DHT22;1662;49.310;8.134;2023-05-19T06:02:16;13.10;99.90
3300;DHT22;1662;49.310;8.134;2023-05-19T06:04:42;12.80;99.90
3300;DHT22;1662;49.310;8.134;2023-05-19T06:07:08;12.50;99.90
3300;DHT22;1662;49.310;8.134;2023-05-19T06:09:34;14.30;99.90
3300;DHT22;1662;49.310;8.134;2023-05-19T06:12:00;12.90;99.90
3300;DHT22;1662;49.310;8.134;2023-05-19T06:14:26;13.20;99.90
3300;DHT22;1662;49.310;8.134;2023-05-19T06:16:52;13.60;99.90
3300;DHT22;1662;49.310;8.134;2023-05-19T06:19:18;12.50;99.90
3300;DHT22;1662;49.310;8.134;2023-05-19T06:21:47;12.80;99.90
3300;DHT22;1662;49.310;8.134;2023-05-19T06:24:12;12.40;99.90
3300;DHT22;1662;49.310;8.134;2023-05-19T06:26:38;14.80;99.90
3300;DHT22;1662;49.310;8.134;2023-05-19T06:29:04;14.60;99.90
3300;DHT22;1662;49.310;8.134;2023-05-19T06:31:30;12.70;99.90
3300;DHT22;1662;49.310;8.134;2023-05-19T06:33:58;13.60;99.90
3300;DHT22;1662;49.310;8.134;2023-05-19T06:36:24;13.30;99.90
3300;DHT22;1662;49.310;8.134;2023-05-19T06:38:49;14.10;99.90
3300;DHT22;1662;49.310;8.134;2023-05-19T06:41:16;15.80;99.90
3300;DHT22;1662;49.310;8.134;2023-05-19T06:43:41;14.60;99.90
3300;DHT22;1662;49.310;8.134;2023-05-19T06:46:07;13.30;99.90
3300;DHT22;1662;49.310;8.134;2023-05-19T06:48:33;13.20;99.90
3300;DHT22;1662;49.310;8.134;2023-05-19T06:50:59;13.20;99.90
3300;DHT22;1662;49.310;8.134;2023-05-19T06:53:25;14.10;99.90
3300;DHT22;1662;49.310;8.134;2023-05-19T06:55:50;13.00;99.90
3300;DHT22;1662;49.310;8.134;2023-05-19T06:58:16;13.30;99.90
3300;DHT22;1662;49.310;8.134;2023-05-19T07:00:42;13.90;99.90
3300;DHT22;1662;49.310;8.134;2023-05-19T07:03:08;14.20;99.90
3300;DHT22;1662;49.310;8.134;2023-05-19T07:05:34;14.10;99.90
3300;DHT22;1662;49.310;8.134;2023-05-19T07:08:00;16.40;99.90
3300;DHT22;1662;49.310;8.134;2023-05-19T07:10:26;13.50;99.90
3300;DHT22;1662;49.310;8.134;2023-05-19T07:12:52;14.00;99.90
3300;DHT22;1662;49.310;8.134;2023-05-19T07:15:18;13.60;99.90
3300;DHT22;1662;49.310;8.134;2023-05-19T07:17:44;13.90;99.90
3300;DHT22;1662;49.310;8.134;2023-05-19T07:20:10;14.60;99.90
3300;DHT22;1662;49.310;8.134;2023-05-19T07:22:36;13.60;99.90
3300;DHT22;1662;49.310;8.134;2023-05-19T07:25:04;13.70;99.90
3300;DHT22;1662;49.310;8.134;2023-05-19T07:27:30;14.00;99.90
3300;DHT22;1662;49.310;8.134;2023-05-19T07:29:56;14.10;99.90
3300;DHT22;1662;49.310;8.134;2023-05-19T07:32:22;13.90;99.90
3300;DHT22;1662;49.310;8.134;2023-05-19T07:34:48;14.00;99.90
3300;DHT22;1662;49.310;8.134;2023-05-19T07:37:14;14.20;99.90
3300;DHT22;1662;49.310;8.134;2023-05-19T07:39:41;15.10;99.90
3300;DHT22;1662;49.310;8.134;2023-05-19T07:42:10;14.80;99.90
3300;DHT22;1662;49.310;8.134;2023-05-19T07:44:35;16.20;99.90
3300;DHT22;1662;49.310;8.134;2023-05-19T07:47:01;14.70;99.90
3300;DHT22;1662;49.310;8.134;2023-05-19T07:49:27;15.10;99.90
3300;DHT22;1662;49.310;8.134;2023-05-19T07:51:56;14.40;99.90
3300;DHT22;1662;49.310;8.134;2023-05-19T07:54:22;14.90;99.90
3300;DHT22;1662;49.310;8.134;2023-05-19T07:56:47;15.70;99.90
3300;DHT22;1662;49.310;8.134;2023-05-19T07:59:14;14.70;99.90
3300;DHT22;1662;49.310;8.134;2023-05-19T08:01:43;15.20;99.90
3300;DHT22;1662;49.310;8.134;2023-05-19T08:04:09;15.10;99.90
3300;DHT22;1662;49.310;8.134;2023-05-19T08:15:34;15.10;99.90
3300;DHT22;1662;49.310;8.134;2023-05-19T08:18:00;15.20;99.90
3300;DHT22;1662;49.310;8.134;2023-05-19T08:20:26;15.30;99.90
3300;DHT22;1662;49.310;8.134;2023-05-19T08:22:51;15.30;99.90
3300;DHT22;1662;49.310;8.134;2023-05-19T08:25:17;15.50;99.90
3300;DHT22;1662;49.310;8.134;2023-05-19T08:27:46;15.50;99.90
3300;DHT22;1662;49.310;8.134;2023-05-19T08:30:12;15.80;99.90
3300;DHT22;1662;49.310;8.134;2023-05-19T08:32:37;15.80;99.90
3300;DHT22;1662;49.310;8.134;2023-05-19T08:35:03;15.60;99.90
3300;DHT22;1662;49.310;8.134;2023-05-19T08:37:29;15.90;99.90
3300;DHT22;1662;49.310;8.134;2023-05-19T08:39:54;16.10;99.90
3300;DHT22;1662;49.310;8.134;2023-05-19T08:42:21;16.00;99.90
3300;DHT22;1662;49.310;8.134;2023-05-19T08:44:47;16.10;99.90
3300;DHT22;1662;49.310;8.134;2023-05-19T08:47:13;16.10;99.90
3300;DHT22;1662;49.310;8.134;2023-05-19T08:49:44;16.20;99.90
3300;DHT22;1662;49.310;8.134;2023-05-19T08:52:24;16.30;99.90
3300;DHT22;1662;49.310;8.134;2023-05-19T08:55:03;16.40;99.90
3300;DHT22;1662;49.310;8.134;2023-05-19T08:57:31;16.60;99.90
3300;DHT22;1662;49.310;8.134;2023-05-19T08:59:57;16.60;99.90
3300;DHT22;1662;49.310;8.134;2023-05-19T09:02:24;16.90;99.90
3300;DHT22;1662;49.310;8.134;2023-05-19T09:04:51;16.80;99.90
3300;DHT22;1662;49.310;8.134;2023-05-19T09:07:17;16.90;99.90
3300;DHT22;1662;49.310;8.134;2023-05-19T09:09:44;17.00;99.90
3300;DHT22;1662;49.310;8.134;2023-05-19T09:12:10;17.10;99.90
3300;DHT22;1662;49.310;8.134;2023-05-19T09:14:36;17.20;99.90
3300;DHT22;1662;49.310;8.134;2023-05-19T09:17:03;17.20;99.90
3300;DHT22;1662;49.310;8.134;2023-05-19T09:19:28;17.30;99.90
3300;DHT22;1662;49.310;8.134;2023-05-19T09:21:58;17.40;99.90
3300;DHT22;1662;49.310;8.134;2023-05-19T09:24:33;17.50;99.90
3300;DHT22;1662;49.310;8.134;2023-05-19T09:26:58;17.60;99.90
3300;DHT22;1662;49.310;8.134;2023-05-19T09:29:24;17.30;99.90
3300;DHT22;1662;49.310;8.134;2023-05-19T09:31:54;17.40;99.90
3300;DHT22;1662;49.310;8.134;2023-05-19T09:34:25;17.90;99.90
3300;DHT22;1662;49.310;8.134;2023-05-19T09:36:54;18.00;99.90
3300;DHT22;1662;49.310;8.134;2023-05-19T09:39:21;18.10;99.90
3300;DHT22;1662;49.310;8.134;2023-05-19T09:41:50;18.10;99.90
3300;DHT22;1662;49.310;8.134;2023-05-19T09:46:52;18.20;99.90
3300;DHT22;1662;49.310;8.134;2023-05-19T09:51:58;18.40;99.90
3300;DHT22;1662;49.310;8.134;2023-05-19T09:54:25;18.60;99.90
3300;DHT22;1662;49.310;8.134;2023-05-19T09:56:59;18.60;99.90
3300;DHT22;1662;49.310;8.134;2023-05-19T09:59:26;18.70;99.90
3300;DHT22;1662;49.310;8.134;2023-05-19T10:01:56;18.80;99.90
3300;DHT22;1662;49.310;8.134;2023-05-19T10:04:26;18.90;99.90
3300;DHT22;1662;49.310;8.134;2023-05-19T10:06:54;19.00;99.90
3300;DHT22;1662;49.310;8.134;2023-05-19T10:09:24;19.10;99.90
3300;DHT22;1662;49.310;8.134;2023-05-19T10:11:59;19.20;99.90
3300;DHT22;1662;49.310;8.134;2023-05-19T10:14:26;19.30;99.90
3300;DHT22;1662;49.310;8.134;2023-05-19T10:16:54;19.40;99.90
3300;DHT22;1662;49.310;8.134;2023-05-19T10:19:21;19.60;99.90
3300;DHT22;1662;49.310;8.134;2023-05-19T10:21:48;19.60;99.90
3300;DHT22;1662;49.310;8.134;2023-05-19T10:24:14;19.80;99.90
3300;DHT22;1662;49.310;8.134;2023-05-19T10:26:59;19.90;99.90
3300;DHT22;1662;49.310;8.134;2023-05-19T10:29:31;19.90;99.90
3300;DHT22;1662;49.310;8.134;2023-05-19T10:32:00;20.10;99.90
3300;DHT22;1662;49.310;8.134;2023-05-19T10:40:31;20.40;99.90
3300;DHT22;1662;49.310;8.134;2023-05-19T10:45:50;20.50;99.90
3300;DHT22;1662;49.310;8.134;2023-05-19T10:48:19;20.70;99.90
3300;DHT22;1662;49.310;8.134;2023-05-19T10:50:46;20.80;99.90
3300;DHT22;1662;49.310;8.134;2023-05-19T10:53:16;20.90;99.90
3300;DHT22;1662;49.310;8.134;2023-05-19T10:55:54;20.90;99.90
3300;DHT22;1662;49.310;8.134;2023-05-19T11:01:18;21.10;99.90
3300;DHT22;1662;49.310;8.134;2023-05-19T11:03:51;21.10;99.90
3300;DHT22;1662;49.310;8.134;2023-05-19T11:06:27;21.10;99.90
3300;DHT22;1662;49.310;8.134;2023-05-19T11:08:58;21.40;99.90
3300;DHT22;1662;49.310;8.134;2023-05-19T11:14:17;21.30;99.90
3300;DHT22;1662;49.310;8.134;2023-05-19T11:16:46;21.20;99.90
3300;DHT22;1662;49.310;8.134;2023-05-19T11:19:29;21.10;99.90
3300;DHT22;1662;49.310;8.134;2023-05-19T11:21:56;21.40;99.90
3300;DHT22;1662;49.310;8.134;2023-05-19T11:24:43;21.60;99.90
3300;DHT22;1662;49.310;8.134;2023-05-19T11:27:30;21.80;99.80
3300;DHT22;1662;49.310;8.134;2023-05-19T11:30:18;22.00;98.70
3300;DHT22;1662;49.310;8.134;2023-05-19T11:32:49;22.00;97.00
3300;DHT22;1662;49.310;8.134;2023-05-19T11:35:15;22.10;98.50
3300;DHT22;1662;49.310;8.134;2023-05-19T11:37:53;22.20;96.70
3300;DHT22;1662;49.310;8.134;2023-05-19T11:40:23;22.40;97.20
3300;DHT22;1662;49.310;8.134;2023-05-19T11:42:49;22.40;95.30
3300;DHT22;1662;49.310;8.134;2023-05-19T11:45:15;22.40;95.90
3300;DHT22;1662;49.310;8.134;2023-05-19T11:47:40;22.30;96.80
3300;DHT22;1662;49.310;8.134;2023-05-19T11:50:06;22.30;95.50
3300;DHT22;1662;49.310;8.134;2023-05-19T11:52:35;22.40;95.70
3300;DHT22;1662;49.310;8.134;2023-05-19T11:55:01;22.30;95.30
3300;DHT22;1662;49.310;8.134;2023-05-19T11:58:08;22.30;96.60
3300;DHT22;1662;49.310;8.134;2023-05-19T12:01:22;22.60;98.00
3300;DHT22;1662;49.310;8.134;2023-05-19T12:07:37;21.90;96.60
3300;DHT22;1662;49.310;8.134;2023-05-19T12:17:57;22.50;97.80
3300;DHT22;1662;49.310;8.134;2023-05-19T12:20:42;22.70;97.90
3300;DHT22;1662;49.310;8.134;2023-05-19T12:23:20;22.60;99.90
3300;DHT22;1662;49.310;8.134;2023-05-19T12:26:09;22.70;99.90
3300;DHT22;1662;49.310;8.134;2023-05-19T12:32:07;21.70;99.90
3300;DHT22;1662;49.310;8.134;2023-05-19T12:34:52;21.80;96.10
3300;DHT22;1662;49.310;8.134;2023-05-19T12:37:45;21.80;98.30
3300;DHT22;1662;49.310;8.134;2023-05-19T12:44:22;22.10;99.90
3300;DHT22;1662;49.310;8.134;2023-05-19T12:47:54;22.40;99.90
3300;DHT22;1662;49.310;8.134;2023-05-19T12:50:20;22.00;99.90
3300;DHT22;1662;49.310;8.134;2023-05-19T12:52:48;21.80;99.90
3300;DHT22;1662;49.310;8.134;2023-05-19T12:55:21;22.50;99.90
3300;DHT22;1662;49.310;8.134;2023-05-19T12:57:57;22.70;99.90
3300;DHT22;1662;49.310;8.134;2023-05-19T13:00:49;21.50;99.90
3300;DHT22;1662;49.310;8.134;2023-05-19T13:03:25;21.80;99.90
3300;DHT22;1662;49.310;8.134;2023-05-19T13:06:12;22.50;99.90
3300;DHT22;1662;49.310;8.134;2023-05-19T13:08:52;22.00;99.90
3300;DHT22;1662;49.310;8.134;2023-05-19T13:12:09;21.70;99.90
3300;DHT22;1662;49.310;8.134;2023-05-19T13:14:43;21.90;99.90
3300;DHT22;1662;49.310;8.134;2023-05-19T13:17:47;21.10;99.90
3300;DHT22;1662;49.310;8.134;2023-05-19T13:20:13;21.30;99.90
3300;DHT22;1662;49.310;8.134;2023-05-19T13:22:51;21.80;99.90
3300;DHT22;1662;49.310;8.134;2023-05-19T13:25:41;22.40;99.90
3300;DHT22;1662;49.310;8.134;2023-05-19T13:28:23;21.50;99.90
3300;DHT22;1662;49.310;8.134;2023-05-19T13:30:52;21.30;99.90
3300;DHT22;1662;49.310;8.134;2023-05-19T13:33:25;21.70;95.90
3300;DHT22;1662;49.310;8.134;2023-05-19T13:35:59;21.70;96.00
3300;DHT22;1662;49.310;8.134;2023-05-19T13:38:40;21.50;96.10
3300;DHT22;1662;49.310;8.134;2023-05-19T13:41:35;21.80;95.30
3300;DHT22;1662;49.310;8.134;2023-05-19T13:44:05;21.80;94.90
3300;DHT22;1662;49.310;8.134;2023-05-19T13:46:34;21.40;94.50
3300;DHT22;1662;49.310;8.134;2023-05-19T13:49:09;21.30;95.40
3300;DHT22;1662;49.310;8.134;2023-05-19T13:52:08;21.40;96.20
3300;DHT22;1662;49.310;8.134;2023-05-19T13:54:58;21.80;95.30
3300;DHT22;1662;49.310;8.134;2023-05-19T13:57:32;21.20;95.40
3300;DHT22;1662;49.310;8.134;2023-05-19T14:00:07;20.60;94.40
3300;DHT22;1662;49.310;8.134;2023-05-19T14:03:03;20.20;93.90
3300;DHT22;1662;49.310;8.134;2023-05-19T14:05:41;20.90;95.50
3300;DHT22;1662;49.310;8.134;2023-05-19T14:08:48;20.10;96.00
3300;DHT22;1662;49.310;8.134;2023-05-19T14:11:18;21.00;95.90
3300;DHT22;1662;49.310;8.134;2023-05-19T14:13:46;20.10;95.00
3300;DHT22;1662;49.310;8.134;2023-05-19T14:16:12;20.40;94.80
3300;DHT22;1662;49.310;8.134;2023-05-19T14:18:38;21.10;95.80
3300;DHT22;1662;49.310;8.134;2023-05-19T14:21:04;20.60;96.00
3300;DHT22;1662;49.310;8.134;2023-05-19T14:23:30;20.50;95.70
3300;DHT22;1662;49.310;8.134;2023-05-19T14:25:57;20.60;97.10
3300;DHT22;1662;49.310;8.134;2023-05-19T14:28:22;20.20;98.00
3300;DHT22;1662;49.310;8.134;2023-05-19T14:30:48;20.40;99.30
3300;DHT22;1662;49.310;8.134;2023-05-19T14:33:14;20.20;98.70
3300;DHT22;1662;49.310;8.134;2023-05-19T14:35:41;18.80;98.70
3300;DHT22;1662;49.310;8.134;2023-05-19T14:38:07;19.30;99.90
3300;DHT22;1662;49.310;8.134;2023-05-19T14:40:35;20.00;99.90
3300;DHT22;1662;49.310;8.134;2023-05-19T14:43:01;19.80;99.90
3300;DHT22;1662;49.310;8.134;2023-05-19T14:45:28;19.70;99.90
3300;DHT22;1662;49.310;8.134;2023-05-19T14:47:53;19.90;99.90
3300;DHT22;1662;49.310;8.134;2023-05-19T14:50:19;20.00;99.90
3300;DHT22;1662;49.310;8.134;2023-05-19T14:52:45;19.50;99.90
3300;DHT22;1662;49.310;8.134;2023-05-19T14:55:11;19.90;99.90
3300;DHT22;1662;49.310;8.134;2023-05-19T14:57:37;19.50;99.90
3300;DHT22;1662;49.310;8.134;2023-05-19T15:00:03;20.00;99.90
3300;DHT22;1662;49.310;8.134;2023-05-19T15:02:29;19.30;99.90
3300;DHT22;1662;49.310;8.134;2023-05-19T15:04:55;19.00;99.90
3300;DHT22;1662;49.310;8.134;2023-05-19T15:07:21;19.20;99.90
3300;DHT22;1662;49.310;8.134;2023-05-19T15:09:46;19.20;99.90
3300;DHT22;1662;49.310;8.134;2023-05-19T15:12:12;20.20;99.90
3300;DHT22;1662;49.310;8.134;2023-05-19T15:14:38;19.30;99.90
3300;DHT22;1662;49.310;8.134;2023-05-19T15:17:04;19.10;99.90
3300;DHT22;1662;49.310;8.134;2023-05-19T15:19:30;19.10;99.90
3300;DHT22;1662;49.310;8.134;2023-05-19T15:21:56;19.10;99.90
3300;DHT22;1662;49.310;8.134;2023-05-19T15:24:22;19.50;99.90
3300;DHT22;1662;49.310;8.134;2023-05-19T15:38:24;20.10;99.90
